Time;durP1;ratioP1;P1;durP2;ratioP2;P2;SDS_P1;SDS_P2;PMS_P1;PMS_P2;Temp;Humidity;BMP_temperature;BMP_pressure;BME280_temperature;BME280_humidity;BME280_pressure;Samples;Min_cycle;Max_cycle;Signal;HPM_P1;HPM_P2
2022/02/26 00:00:34;;;;;;;16.60;6.67;;;4.90;79.50;;;;;;5064680;28;20205;-67
2022/02/26 00:03:01;;;;;;;9.97;5.80;;;4.90;79.80;;;;;;5070544;28;20266;-66
2022/02/26 00:05:28;;;;;;;13.00;6.13;;;4.90;80.00;;;;;;5072477;28;20291;-66
2022/02/26 00:07:55;;;;;;;12.93;5.60;;;4.90;80.20;;;;;;5065757;28;20236;-67
2022/02/26 00:10:24;;;;;;;12.60;6.07;;;4.90;80.40;;;;;;5067506;28;20646;-67
2022/02/26 00:12:52;;;;;;;12.80;6.50;;;4.90;80.40;;;;;;5067821;28;20209;-66
2022/02/26 00:15:19;;;;;;;12.60;6.97;;;4.90;80.40;;;;;;5058467;28;20269;-67
2022/02/26 00:17:46;;;;;;;11.17;5.80;;;4.90;80.40;;;;;;5059218;28;20208;-67
2022/02/26 00:20:13;;;;;;;15.73;8.33;;;4.90;81.10;;;;;;5066077;28;20255;-67
2022/02/26 00:22:41;;;;;;;16.23;6.90;;;4.80;80.30;;;;;;5072233;28;20212;-67
2022/02/26 00:25:10;;;;;;;11.10;5.83;;;4.80;80.60;;;;;;5062526;28;20210;-68
2022/02/26 00:27:38;;;;;;;12.60;6.00;;;4.70;80.50;;;;;;5070322;28;20210;-68
2022/02/26 00:30:06;;;;;;;13.37;6.23;;;4.80;80.70;;;;;;5069982;28;20229;-68
2022/02/26 00:32:33;;;;;;;13.10;6.53;;;4.70;80.70;;;;;;5066563;28;20280;-67
2022/02/26 00:35:00;;;;;;;13.77;7.20;;;4.70;80.70;;;;;;5063510;28;21342;-70
2022/02/26 00:37:27;;;;;;;12.87;6.60;;;4.70;80.80;;;;;;5063713;28;20236;-69
2022/02/26 00:39:54;;;;;;;11.43;6.33;;;4.70;81.20;;;;;;5066836;28;20214;-69
2022/02/26 00:42:21;;;;;;;13.13;6.50;;;4.60;81.30;;;;;;5066509;28;20257;-71
2022/02/26 00:44:49;;;;;;;12.93;6.90;;;4.60;81.40;;;;;;5057118;28;20216;-70
2022/02/26 00:47:16;;;;;;;14.07;6.77;;;4.60;81.60;;;;;;5047513;28;20286;-71
2022/02/26 00:49:48;;;;;;;14.50;7.03;;;4.60;81.90;;;;;;5054976;28;20213;-70
2022/02/26 00:52:15;;;;;;;14.73;7.00;;;4.60;82.30;;;;;;5062375;28;20205;-70
2022/02/26 00:54:42;;;;;;;12.40;6.43;;;4.60;82.40;;;;;;5069054;28;20291;-70
2022/02/26 00:57:09;;;;;;;12.50;6.83;;;4.60;82.60;;;;;;5068149;28;20244;-70
2022/02/26 00:59:36;;;;;;;13.60;6.27;;;4.60;82.60;;;;;;5066713;28;20485;-70
2022/02/26 01:02:05;;;;;;;15.30;7.27;;;4.60;82.60;;;;;;5066959;28;20640;-69
2022/02/26 01:04:32;;;;;;;16.73;7.13;;;4.70;82.60;;;;;;5062948;28;20202;-71
2022/02/26 01:06:59;;;;;;;13.20;6.80;;;4.60;82.70;;;;;;5064531;28;20213;-69
2022/02/26 01:09:27;;;;;;;16.27;6.23;;;4.70;82.80;;;;;;5069349;28;20205;-70
2022/02/26 01:11:54;;;;;;;16.30;6.93;;;4.70;83.60;;;;;;5060892;28;20209;-69
2022/02/26 01:14:21;;;;;;;14.87;6.80;;;4.60;83.00;;;;;;5062682;28;20227;-69
2022/02/26 01:16:48;;;;;;;14.57;6.83;;;4.60;83.20;;;;;;5049904;28;20226;-70
2022/02/26 01:19:17;;;;;;;15.30;6.27;;;4.60;83.40;;;;;;5057177;28;20644;-70
2022/02/26 01:21:44;;;;;;;13.33;7.27;;;4.60;83.50;;;;;;5058078;28;20308;-69
2022/02/26 01:24:11;;;;;;;12.20;6.47;;;4.70;83.60;;;;;;5057574;28;20238;-69
2022/02/26 01:26:39;;;;;;;13.80;6.77;;;4.60;83.50;;;;;;5052302;28;20202;-70
2022/02/26 01:29:06;;;;;;;12.47;6.97;;;4.60;83.70;;;;;;5055119;28;20221;-70
2022/02/26 01:31:35;;;;;;;14.37;6.57;;;4.70;84.00;;;;;;5053292;28;20712;-70
2022/02/26 01:34:03;;;;;;;13.30;6.50;;;4.70;84.00;;;;;;5049348;28;20705;-69
2022/02/26 01:36:32;;;;;;;11.73;6.80;;;4.70;84.20;;;;;;5047205;28;20321;-69
2022/02/26 01:38:59;;;;;;;15.53;7.97;;;4.70;84.30;;;;;;5054122;28;20217;-69
2022/02/26 01:41:28;;;;;;;13.80;7.10;;;4.70;84.30;;;;;;5053627;28;20210;-70
2022/02/26 01:43:55;;;;;;;11.07;6.50;;;4.70;84.60;;;;;;5052599;28;20789;-69
2022/02/26 01:46:22;;;;;;;15.93;7.60;;;4.70;84.80;;;;;;5044916;28;20218;-71
2022/02/26 01:48:49;;;;;;;12.53;7.17;;;4.70;85.00;;;;;;5053873;28;20233;-69
2022/02/26 01:51:16;;;;;;;14.77;7.27;;;4.80;85.20;;;;;;5048137;28;20213;-70
2022/02/26 01:53:45;;;;;;;15.13;6.93;;;4.80;85.20;;;;;;5053846;28;20206;-70
2022/02/26 01:56:11;;;;;;;17.13;6.70;;;4.80;85.10;;;;;;5057278;28;20320;-70
2022/02/26 01:58:39;;;;;;;16.73;6.97;;;4.80;85.10;;;;;;5061510;28;20209;-70
2022/02/26 02:01:06;;;;;;;15.73;7.43;;;4.80;85.10;;;;;;5053647;28;20217;-70
2022/02/26 02:03:34;;;;;;;14.60;7.63;;;4.80;85.10;;;;;;5051913;28;20275;-69
2022/02/26 02:06:02;;;;;;;14.67;7.03;;;4.80;85.30;;;;;;5040863;28;20310;-69
2022/02/26 02:08:30;;;;;;;14.03;7.03;;;4.80;85.50;;;;;;5053972;28;20206;-70
2022/02/26 02:10:58;;;;;;;13.73;6.87;;;4.80;85.70;;;;;;5042273;28;20208;-70
2022/02/26 02:13:25;;;;;;;19.67;7.80;;;4.80;86.00;;;;;;5046453;28;20289;-72
2022/02/26 02:15:54;;;;;;;12.80;7.43;;;4.80;86.20;;;;;;5051974;28;20216;-71
2022/02/26 02:18:21;;;;;;;12.43;6.73;;;4.80;86.40;;;;;;5042697;28;20280;-70
2022/02/26 02:20:48;;;;;;;15.27;6.77;;;4.80;87.40;;;;;;5047267;28;20313;-70
2022/02/26 02:23:17;;;;;;;16.77;7.27;;;4.80;86.90;;;;;;5050496;28;20209;-71
2022/02/26 02:25:44;;;;;;;15.10;7.33;;;4.80;87.00;;;;;;5046129;28;20224;-67
2022/02/26 02:28:11;;;;;;;16.63;8.50;;;4.80;87.40;;;;;;5052011;28;20294;-66
2022/02/26 02:30:39;;;;;;;12.97;7.33;;;4.80;87.40;;;;;;5058070;28;20583;-66
2022/02/26 02:33:07;;;;;;;15.70;7.73;;;4.70;87.30;;;;;;5069794;28;20280;-67
2022/02/26 02:35:35;;;;;;;16.13;7.83;;;4.80;87.60;;;;;;5048188;28;20663;-67
2022/02/26 02:38:05;;;;;;;15.63;7.17;;;4.80;87.80;;;;;;5043383;28;20710;-68
2022/02/26 02:40:33;;;;;;;13.43;6.73;;;4.80;87.80;;;;;;5062134;28;20246;-67
2022/02/26 02:43:00;;;;;;;14.40;7.90;;;4.80;87.90;;;;;;5048504;28;20243;-67
2022/02/26 02:45:27;;;;;;;14.57;7.30;;;4.80;88.30;;;;;;5050523;28;20214;-67
2022/02/26 02:47:54;;;;;;;15.13;7.13;;;4.70;88.40;;;;;;5053844;28;20237;-67
2022/02/26 02:50:21;;;;;;;12.30;6.87;;;4.70;88.50;;;;;;5048199;28;20233;-68
2022/02/26 02:52:48;;;;;;;12.57;6.67;;;4.70;88.80;;;;;;5054099;28;20286;-67
2022/02/26 02:55:16;;;;;;;15.50;7.63;;;4.70;89.10;;;;;;5049606;28;20209;-68
2022/02/26 02:57:45;;;;;;;15.60;7.13;;;4.70;89.30;;;;;;5062318;28;20223;-68
2022/02/26 03:00:14;;;;;;;12.93;6.97;;;4.80;89.60;;;;;;5053840;28;20686;-67
2022/02/26 03:02:41;;;;;;;13.90;7.50;;;4.80;89.80;;;;;;5052476;28;20602;-67
2022/02/26 03:05:09;;;;;;;14.23;7.10;;;4.80;90.00;;;;;;5050459;28;20724;-67
2022/02/26 03:07:36;;;;;;;12.63;6.83;;;4.80;90.00;;;;;;5035506;28;20256;-66
2022/02/26 03:10:05;;;;;;;14.07;6.80;;;4.80;90.20;;;;;;5050740;28;20209;-67
2022/02/26 03:12:32;;;;;;;12.40;6.67;;;4.80;90.20;;;;;;5053573;28;20730;-67
2022/02/26 03:15:00;;;;;;;14.40;6.80;;;4.80;90.20;;;;;;5054653;28;20206;-69
2022/02/26 03:17:27;;;;;;;14.77;7.70;;;4.80;90.20;;;;;;5065420;28;20286;-69
2022/02/26 03:19:54;;;;;;;12.47;6.87;;;4.80;90.20;;;;;;5067066;28;20270;-69
2022/02/26 03:22:21;;;;;;;17.07;7.43;;;4.80;90.20;;;;;;5052845;28;20222;-66
2022/02/26 03:24:49;;;;;;;16.13;7.17;;;4.80;90.50;;;;;;5052976;28;20305;-68
2022/02/26 03:27:16;;;;;;;13.87;7.00;;;4.80;90.70;;;;;;5053378;28;20204;-67
2022/02/26 03:29:43;;;;;;;15.97;6.63;;;4.80;90.80;;;;;;5059899;28;20708;-67
2022/02/26 03:32:12;;;;;;;13.37;6.63;;;4.70;90.90;;;;;;5065616;28;20217;-67
2022/02/26 03:34:39;;;;;;;16.87;7.10;;;4.70;91.20;;;;;;5058946;28;20553;-67
2022/02/26 03:37:07;;;;;;;13.80;6.97;;;4.70;91.40;;;;;;5051353;28;20229;-66
2022/02/26 03:39:34;;;;;;;12.67;6.57;;;4.70;91.60;;;;;;5061311;28;20193;-67
2022/02/26 03:42:02;;;;;;;16.13;7.33;;;4.60;91.90;;;;;;5047005;28;20238;-66
2022/02/26 03:44:30;;;;;;;9.87;6.23;;;4.60;92.20;;;;;;5047688;28;20202;-67
2022/02/26 03:46:58;;;;;;;14.30;7.30;;;4.60;92.40;;;;;;5044590;28;20577;-67
2022/02/26 03:49:26;;;;;;;14.43;7.13;;;4.60;92.60;;;;;;5053327;28;20255;-67
2022/02/26 03:51:53;;;;;;;17.90;7.43;;;4.60;92.90;;;;;;5053244;28;20647;-67
2022/02/26 03:54:20;;;;;;;12.73;6.23;;;4.50;93.10;;;;;;5047859;28;20593;-67
2022/02/26 03:56:47;;;;;;;14.23;6.57;;;4.50;93.80;;;;;;5062810;28;20651;-67
2022/02/26 03:59:14;;;;;;;15.67;7.13;;;4.50;93.70;;;;;;5056949;28;20320;-67
2022/02/26 04:01:41;;;;;;;12.37;6.30;;;4.50;94.00;;;;;;5049162;28;20664;-67
2022/02/26 04:04:08;;;;;;;12.50;6.43;;;4.40;94.30;;;;;;5041530;28;20288;-67
2022/02/26 04:06:37;;;;;;;12.57;6.47;;;4.40;94.60;;;;;;5047013;28;20238;-67
2022/02/26 04:09:05;;;;;;;15.10;6.90;;;4.40;94.90;;;;;;5043777;28;20241;-68
2022/02/26 04:11:31;;;;;;;14.47;6.70;;;4.40;95.30;;;;;;5051085;28;20292;-67
2022/02/26 04:13:58;;;;;;;12.17;6.70;;;4.40;95.60;;;;;;5049482;28;20255;-67
2022/02/26 04:16:25;;;;;;;12.77;6.63;;;4.30;95.80;;;;;;5046518;28;20321;-68
2022/02/26 04:18:52;;;;;;;11.50;6.93;;;4.40;96.30;;;;;;5043175;28;20241;-67
2022/02/26 04:21:19;;;;;;;17.10;7.20;;;4.40;96.50;;;;;;5052576;28;20297;-67
2022/02/26 04:23:47;;;;;;;12.40;7.20;;;4.30;96.70;;;;;;5051734;28;20233;-67
2022/02/26 04:26:14;;;;;;;12.00;6.77;;;4.30;97.00;;;;;;5050898;28;20210;-68
2022/02/26 04:28:41;;;;;;;15.73;8.00;;;4.30;97.30;;;;;;5042749;28;20278;-68
2022/02/26 04:31:08;;;;;;;15.00;6.67;;;4.30;97.60;;;;;;5058314;28;20603;-67
2022/02/26 04:33:35;;;;;;;12.27;6.73;;;4.30;97.90;;;;;;5058070;28;20202;-66
2022/02/26 04:36:02;;;;;;;13.37;6.53;;;4.30;98.30;;;;;;5054592;28;20245;-67
2022/02/26 04:38:29;;;;;;;12.33;6.60;;;4.30;98.50;;;;;;5050090;28;20313;-67
2022/02/26 04:40:58;;;;;;;13.40;7.00;;;4.30;98.80;;;;;;5052332;28;20221;-66
2022/02/26 04:43:25;;;;;;;12.40;6.30;;;4.30;99.20;;;;;;5054386;28;20291;-67
2022/02/26 04:45:52;;;;;;;12.17;7.00;;;4.30;99.40;;;;;;5055324;28;20206;-67
2022/02/26 04:48:19;;;;;;;12.80;7.30;;;4.30;99.70;;;;;;5055455;28;20249;-66
2022/02/26 04:50:46;;;;;;;15.50;7.43;;;4.30;99.80;;;;;;5055732;28;20646;-67
2022/02/26 04:53:13;;;;;;;14.43;6.90;;;4.30;99.90;;;;;;5051628;28;20221;-67
2022/02/26 04:55:42;;;;;;;17.17;7.37;;;4.30;99.90;;;;;;5053763;28;20205;-66
2022/02/26 04:58:11;;;;;;;12.33;6.47;;;4.30;99.90;;;;;;5054523;28;20222;-67
2022/02/26 05:00:38;;;;;;;12.57;6.80;;;4.30;99.90;;;;;;5056172;28;20206;-66
2022/02/26 05:03:05;;;;;;;12.90;6.80;;;4.30;99.90;;;;;;5050931;28;20213;-68
2022/02/26 05:05:32;;;;;;;14.20;7.27;;;4.30;99.90;;;;;;5064142;28;20309;-68
2022/02/26 05:07:59;;;;;;;17.63;7.23;;;4.20;99.90;;;;;;5054875;28;20213;-67
2022/02/26 05:10:25;;;;;;;14.93;6.67;;;4.20;99.90;;;;;;5055902;28;20718;-67
2022/02/26 05:12:52;;;;;;;13.33;6.40;;;4.00;99.90;;;;;;5054891;28;20594;-68
2022/02/26 05:15:20;;;;;;;12.07;6.67;;;4.10;99.90;;;;;;5055889;28;20293;-68
2022/02/26 05:17:47;;;;;;;15.27;7.40;;;4.10;99.90;;;;;;5055796;28;20226;-67
2022/02/26 05:20:15;;;;;;;17.63;7.17;;;4.00;99.90;;;;;;5055571;28;20256;-67
2022/02/26 05:22:43;;;;;;;16.97;7.00;;;4.00;99.90;;;;;;5048448;28;20284;-66
2022/02/26 05:25:11;;;;;;;11.67;6.77;;;4.00;99.90;;;;;;5054237;28;20260;-68
2022/02/26 05:27:40;;;;;;;13.93;6.87;;;3.90;99.90;;;;;;5047414;28;20655;-67
2022/02/26 05:30:11;;;;;;;14.73;6.57;;;3.90;99.90;;;;;;5060289;28;20571;-67
2022/02/26 05:32:39;;;;;;;12.13;6.90;;;3.90;99.90;;;;;;5050468;28;20198;-67
2022/02/26 05:35:07;;;;;;;12.93;6.93;;;3.90;99.90;;;;;;5055488;28;20210;-67
2022/02/26 05:37:34;;;;;;;13.07;6.37;;;3.80;99.90;;;;;;5055507;28;20714;-67
2022/02/26 05:40:01;;;;;;;12.37;6.53;;;3.80;99.90;;;;;;5046890;28;20293;-67
2022/02/26 05:42:29;;;;;;;11.90;7.03;;;3.80;99.90;;;;;;5054274;28;20260;-67
2022/02/26 05:44:56;;;;;;;11.93;7.10;;;3.70;99.90;;;;;;5048800;28;20213;-68
2022/02/26 05:47:23;;;;;;;11.50;7.40;;;3.70;99.90;;;;;;5043428;28;20207;-67
2022/02/26 05:49:51;;;;;;;14.30;7.67;;;3.70;99.90;;;;;;5053839;28;20208;-68
2022/02/26 05:52:18;;;;;;;12.90;7.27;;;3.70;99.90;;;;;;5054953;28;20210;-67
2022/02/26 05:54:45;;;;;;;15.87;7.30;;;3.70;99.90;;;;;;5051992;28;20612;-67
2022/02/26 05:57:12;;;;;;;13.03;7.07;;;3.70;99.90;;;;;;5067393;28;20254;-67
2022/02/26 05:59:39;;;;;;;11.93;7.23;;;3.70;99.90;;;;;;5055203;28;20206;-68
2022/02/26 06:02:06;;;;;;;13.90;6.87;;;3.70;99.90;;;;;;5049352;28;20210;-67
2022/02/26 06:04:33;;;;;;;11.73;7.17;;;3.70;99.90;;;;;;5055035;28;20609;-67
2022/02/26 06:07:01;;;;;;;12.00;6.90;;;3.70;99.90;;;;;;5063211;28;20233;-67
2022/02/26 06:09:28;;;;;;;14.20;7.60;;;3.80;99.90;;;;;;5053957;28;20302;-67
2022/02/26 06:11:55;;;;;;;14.47;6.93;;;3.70;99.90;;;;;;5050224;28;20214;-68
2022/02/26 06:14:21;;;;;;;15.07;7.17;;;3.80;99.90;;;;;;5053068;28;20297;-67
2022/02/26 06:16:48;;;;;;;10.27;6.87;;;3.80;99.90;;;;;;5048371;28;20241;-67
2022/02/26 06:19:15;;;;;;;13.57;7.93;;;3.80;99.90;;;;;;5054186;28;20290;-67
2022/02/26 06:21:42;;;;;;;13.70;7.50;;;3.80;99.90;;;;;;5053439;28;20237;-67
2022/02/26 06:24:10;;;;;;;13.13;7.43;;;3.90;99.90;;;;;;5053472;28;20204;-68
2022/02/26 06:26:37;;;;;;;11.77;7.17;;;4.00;99.90;;;;;;5053846;28;20209;-67
2022/02/26 06:29:04;;;;;;;13.83;7.60;;;4.00;99.90;;;;;;5061427;28;20228;-67
2022/02/26 06:31:31;;;;;;;15.63;8.17;;;4.10;99.90;;;;;;5055601;28;20644;-68
2022/02/26 06:33:58;;;;;;;15.53;8.20;;;4.10;99.90;;;;;;5063934;28;20351;-69
2022/02/26 06:36:25;;;;;;;18.20;8.30;;;4.20;99.90;;;;;;5053644;28;20205;-67
2022/02/26 06:38:52;;;;;;;15.33;8.50;;;4.30;99.90;;;;;;5051357;28;20327;-68
2022/02/26 06:41:20;;;;;;;15.47;8.23;;;4.50;99.90;;;;;;5048640;28;20206;-67
2022/02/26 06:43:47;;;;;;;15.73;7.70;;;4.60;99.90;;;;;;5051324;28;20241;-67
2022/02/26 06:46:14;;;;;;;18.70;8.40;;;4.80;99.90;;;;;;5040439;28;20218;-67
2022/02/26 06:48:40;;;;;;;15.43;7.67;;;4.80;99.90;;;;;;5053108;28;20709;-66
2022/02/26 06:51:08;;;;;;;14.03;8.23;;;4.90;99.90;;;;;;5053551;28;20239;-67
2022/02/26 06:53:36;;;;;;;11.23;6.87;;;5.00;99.90;;;;;;5051664;28;20206;-68
2022/02/26 06:56:02;;;;;;;13.13;7.77;;;5.00;99.90;;;;;;5055917;28;20654;-67
2022/02/26 06:58:31;;;;;;;12.07;6.93;;;5.10;99.90;;;;;;5053318;28;20232;-67
2022/02/26 07:00:59;;;;;;;15.43;7.53;;;5.00;99.90;;;;;;5048405;28;20644;-67
2022/02/26 07:03:26;;;;;;;10.33;6.37;;;5.00;99.90;;;;;;5052208;28;20209;-68
2022/02/26 07:05:53;;;;;;;14.27;7.00;;;5.00;99.90;;;;;;5065203;28;20244;-68
2022/02/26 07:08:20;;;;;;;15.07;7.23;;;5.00;99.90;;;;;;5053500;28;20206;-68
2022/02/26 07:10:47;;;;;;;12.60;6.97;;;5.00;99.90;;;;;;5058344;28;20205;-67
2022/02/26 07:13:14;;;;;;;15.60;7.70;;;4.90;99.90;;;;;;5045034;28;20209;-67
2022/02/26 07:15:42;;;;;;;13.83;7.87;;;4.90;99.90;;;;;;5054320;28;20212;-68
2022/02/26 07:18:10;;;;;;;10.47;6.90;;;4.90;99.90;;;;;;5049749;28;20222;-69
2022/02/26 07:20:37;;;;;;;11.43;7.43;;;5.10;99.90;;;;;;5047745;28;20605;-66
2022/02/26 07:23:05;;;;;;;15.23;7.30;;;5.30;99.90;;;;;;5052826;28;20224;-68
2022/02/26 07:25:32;;;;;;;13.07;7.10;;;5.60;99.90;;;;;;5050690;28;20202;-68
2022/02/26 07:27:59;;;;;;;11.23;7.13;;;6.10;99.90;;;;;;5053427;28;20212;-68
2022/02/26 07:30:26;;;;;;;12.40;7.03;;;6.30;99.90;;;;;;5057222;28;20238;-67
2022/02/26 07:32:55;;;;;;;12.53;7.10;;;6.40;99.90;;;;;;5053530;28;20229;-67
2022/02/26 07:35:22;;;;;;;13.60;7.43;;;6.50;99.90;;;;;;5052658;28;20215;-69
2022/02/26 07:37:49;;;;;;;10.97;6.27;;;6.50;99.90;;;;;;5050775;28;20288;-67
2022/02/26 07:40:16;;;;;;;13.23;7.50;;;6.70;99.90;;;;;;5051061;28;20220;-67
2022/02/26 07:42:43;;;;;;;12.63;7.13;;;6.90;99.90;;;;;;5052342;28;20234;-68
2022/02/26 07:45:10;;;;;;;10.87;7.07;;;6.90;99.90;;;;;;5046102;28;20217;-68
2022/02/26 07:47:37;;;;;;;9.07;6.73;;;7.20;99.90;;;;;;5050379;28;20259;-67
2022/02/26 07:50:06;;;;;;;10.17;6.40;;;7.40;99.90;;;;;;5051509;28;20210;-68
2022/02/26 07:52:33;;;;;;;13.83;8.30;;;7.60;99.90;;;;;;5048714;28;20210;-67
2022/02/26 07:55:01;;;;;;;12.03;7.43;;;7.70;99.90;;;;;;5044777;28;20259;-68
2022/02/26 07:57:28;;;;;;;10.63;7.50;;;7.70;99.90;;;;;;5051998;28;20249;-67
2022/02/26 07:59:55;;;;;;;15.73;8.07;;;7.80;99.90;;;;;;5042430;28;20236;-67
2022/02/26 08:02:22;;;;;;;11.50;7.33;;;7.80;99.90;;;;;;5055768;28;20214;-69
2022/02/26 08:04:50;;;;;;;11.47;7.87;;;8.00;99.90;;;;;;5053141;28;20234;-68
2022/02/26 08:07:18;;;;;;;12.03;7.70;;;8.20;99.90;;;;;;5052873;28;20228;-69
2022/02/26 08:09:45;;;;;;;10.53;7.13;;;8.30;99.90;;;;;;5049474;28;20235;-68
2022/02/26 08:12:13;;;;;;;12.43;7.23;;;8.50;99.90;;;;;;5051765;28;20242;-68
2022/02/26 08:14:40;;;;;;;11.67;7.60;;;8.70;99.90;;;;;;5055896;28;20225;-70
2022/02/26 08:17:08;;;;;;;10.90;7.47;;;8.80;99.90;;;;;;5053629;28;20662;-68
2022/02/26 08:19:35;;;;;;;12.00;7.83;;;8.80;99.80;;;;;;5061618;28;20280;-67
2022/02/26 08:22:02;;;;;;;13.80;8.63;;;8.90;99.60;;;;;;5061431;28;20644;-68
2022/02/26 08:24:31;;;;;;;10.87;7.23;;;9.00;99.00;;;;;;5057048;28;20206;-69
2022/02/26 08:26:58;;;;;;;14.67;8.53;;;9.10;99.10;;;;;;5059114;28;20182;-69
2022/02/26 08:29:25;;;;;;;11.33;8.27;;;9.20;98.40;;;;;;5064024;28;20236;-69
2022/02/26 08:31:52;;;;;;;13.10;8.13;;;9.30;98.30;;;;;;5044552;28;20272;-70
2022/02/26 08:34:19;;;;;;;11.40;7.83;;;9.40;98.20;;;;;;5055707;28;20225;-69
2022/02/26 08:36:46;;;;;;;11.43;8.40;;;9.60;97.50;;;;;;5050194;28;20242;-70
2022/02/26 08:39:13;;;;;;;11.17;6.33;;;9.80;97.20;;;;;;5055161;28;20657;-69
2022/02/26 08:41:41;;;;;;;10.93;7.33;;;10.00;96.60;;;;;;5052659;28;20564;-70
2022/02/26 08:44:08;;;;;;;12.27;7.07;;;10.50;96.20;;;;;;5055993;28;20382;-70
2022/02/26 08:46:35;;;;;;;11.83;6.63;;;11.00;95.10;;;;;;5039018;28;20253;-69
2022/02/26 08:49:03;;;;;;;9.17;6.67;;;11.30;93.70;;;;;;5051443;28;20206;-68
2022/02/26 08:51:30;;;;;;;12.03;7.03;;;11.60;92.50;;;;;;5047994;28;20308;-69
2022/02/26 08:53:57;;;;;;;11.63;7.60;;;11.70;91.20;;;;;;5054849;28;20593;-70
2022/02/26 08:56:24;;;;;;;11.93;6.77;;;11.80;90.50;;;;;;5043823;28;20202;-69
2022/02/26 08:58:54;;;;;;;13.93;7.90;;;11.90;89.30;;;;;;5056136;28;20236;-69
2022/02/26 09:01:22;;;;;;;10.17;6.60;;;11.70;86.90;;;;;;5051321;28;20611;-68
2022/02/26 09:03:49;;;;;;;12.13;7.13;;;11.60;86.70;;;;;;5055113;28;20251;-68
2022/02/26 09:06:16;;;;;;;13.83;7.07;;;11.50;86.40;;;;;;5043828;28;20221;-70
2022/02/26 09:08:42;;;;;;;12.43;7.17;;;11.30;85.50;;;;;;5042918;28;20297;-68
2022/02/26 09:11:10;;;;;;;10.10;7.53;;;11.20;85.40;;;;;;5059283;28;20209;-69
2022/02/26 09:13:39;;;;;;;14.47;7.77;;;11.10;86.00;;;;;;5053542;28;20235;-68
2022/02/26 09:16:08;;;;;;;13.73;7.43;;;10.90;87.30;;;;;;5058342;28;20293;-69
2022/02/26 09:18:35;;;;;;;11.63;8.03;;;11.70;93.60;;;;;;5062296;28;20312;-68
2022/02/26 09:21:03;;;;;;;12.43;7.80;;;13.30;88.30;;;;;;5045300;28;20266;-66
2022/02/26 09:23:30;;;;;;;13.50;7.50;;;13.90;79.10;;;;;;5050059;28;20221;-70
2022/02/26 09:25:57;;;;;;;14.60;7.57;;;13.80;76.70;;;;;;5053042;28;20221;-69
2022/02/26 09:28:24;;;;;;;11.83;7.90;;;14.40;76.50;;;;;;5047417;28;20652;-67
2022/02/26 09:30:51;;;;;;;10.70;7.33;;;14.50;71.70;;;;;;5050903;28;20214;-68
2022/02/26 09:33:20;;;;;;;11.90;7.57;;;14.60;82.60;;;;;;5050023;28;20202;-69
2022/02/26 09:35:46;;;;;;;12.40;7.17;;;16.80;80.20;;;;;;5042174;28;20639;-71
2022/02/26 09:38:13;;;;;;;9.70;6.80;;;19.70;66.40;;;;;;5052201;28;20210;-69
2022/02/26 09:40:40;;;;;;;10.52;7.45;;;22.40;53.20;;;;;;5046870;28;20534;-69
2022/02/26 09:43:09;;;;;;;11.77;7.63;;;24.10;46.60;;;;;;5058163;28;20328;-65
2022/02/26 09:45:36;;;;;;;11.50;6.97;;;24.00;42.60;;;;;;5046665;28;20297;-69
2022/02/26 09:48:03;;;;;;;12.02;7.82;;;22.90;41.50;;;;;;5052430;28;20297;-65
2022/02/26 09:50:32;;;;;;;14.45;8.55;;;21.60;42.80;;;;;;5058489;28;20197;-70
2022/02/26 09:52:59;;;;;;;9.40;6.88;;;20.50;45.00;;;;;;5056225;28;20252;-68
2022/02/26 09:55:26;;;;;;;10.95;6.85;;;20.20;44.90;;;;;;5053613;28;20264;-70
2022/02/26 09:57:53;;;;;;;11.55;7.03;;;20.30;46.10;;;;;;5053937;28;20660;-69
2022/02/26 10:00:20;;;;;;;12.10;7.13;;;20.00;44.90;;;;;;5050379;28;20228;-70
2022/02/26 10:02:50;;;;;;;8.73;5.93;;;20.10;46.10;;;;;;5053332;28;20285;-73
2022/02/26 10:05:18;;;;;;;7.68;6.07;;;19.80;45.00;;;;;;5054777;28;20229;-70
2022/02/26 10:07:49;;;;;;;8.27;5.70;;;19.20;44.60;;;;;;5054132;28;20222;-72
2022/02/26 10:10:19;;;;;;;9.48;5.45;;;18.40;45.70;;;;;;5040989;28;20202;-67
2022/02/26 10:12:51;;;;;;;8.20;5.40;;;17.70;46.70;;;;;;5052780;28;20206;-68
2022/02/26 10:15:25;;;;;;;7.80;5.50;;;17.40;49.80;;;;;;5046640;28;20698;-70
2022/02/26 10:18:01;;;;;;;8.93;5.90;;;17.40;48.20;;;;;;5060092;28;20206;-69
2022/02/26 10:20:28;;;;;;;9.33;6.00;;;17.10;47.70;;;;;;5053340;28;20705;-69
2022/02/26 10:22:57;;;;;;;9.23;5.93;;;16.40;47.40;;;;;;5051039;28;20257;-69
2022/02/26 10:25:25;;;;;;;10.03;6.23;;;15.60;48.90;;;;;;5053568;28;20206;-69
2022/02/26 10:27:55;;;;;;;9.20;5.43;;;14.80;50.40;;;;;;5052276;28;20620;-69
2022/02/26 10:30:24;;;;;;;9.53;6.20;;;14.20;51.70;;;;;;5051746;28;20653;-68
2022/02/26 10:33:09;;;;;;;11.97;6.47;;;13.50;52.90;;;;;;5056416;28;20202;-70
2022/02/26 10:35:42;;;;;;;10.17;5.83;;;12.90;54.10;;;;;;5054305;28;20670;-71
2022/02/26 10:38:18;;;;;;;12.73;7.90;;;12.50;55.10;;;;;;5053116;28;20849;-71
2022/02/26 10:40:48;;;;;;;12.82;7.80;;;12.00;57.50;;;;;;5050203;28;20448;-71
2022/02/26 10:43:15;;;;;;;11.23;7.23;;;11.60;58.30;;;;;;5052273;28;20623;-71
2022/02/26 10:45:42;;;;;;;8.63;6.37;;;11.40;58.80;;;;;;5051813;28;20256;-68
2022/02/26 10:48:09;;;;;;;10.90;6.87;;;11.20;59.10;;;;;;5040571;28;20253;-72
2022/02/26 10:50:36;;;;;;;12.90;7.10;;;11.10;59.80;;;;;;5051723;28;20353;-74
2022/02/26 10:53:04;;;;;;;9.37;6.53;;;12.30;82.20;;;;;;5054906;28;20233;-73
2022/02/26 10:55:53;;;;;;;11.40;6.10;;;16.20;68.50;;;;;;5053833;28;20210;-75
2022/02/26 10:58:21;;;;;;;9.95;5.03;;;21.40;53.00;;;;;;5044595;28;20205;-75
2022/02/26 11:00:48;;;;;;;7.82;4.88;;;24.90;43.20;;;;;;5051381;28;20245;-74
2022/02/26 11:03:18;;;;;;;7.97;5.20;;;26.80;38.70;;;;;;5059945;28;20237;-73
2022/02/26 11:05:45;;;;;;;6.72;5.32;;;26.50;36.90;;;;;;5064763;28;20622;-71
2022/02/26 11:08:15;;;;;;;7.35;5.85;;;25.00;35.80;;;;;;5051078;28;20202;-72
2022/02/26 11:10:43;;;;;;;10.00;5.57;;;23.00;37.00;;;;;;5048619;28;20709;-71
2022/02/26 11:13:12;;;;;;;7.68;5.22;;;21.00;38.80;;;;;;5060417;28;20228;-71
2022/02/26 11:15:40;;;;;;;8.18;5.57;;;19.50;40.80;;;;;;5048320;28;20233;-70
2022/02/26 11:18:09;;;;;;;8.77;5.32;;;18.20;42.30;;;;;;5054670;28;20216;-70
2022/02/26 11:20:36;;;;;;;6.80;4.90;;;17.40;44.30;;;;;;5056714;28;20265;-69
2022/02/26 11:23:04;;;;;;;10.70;5.50;;;18.00;49.80;;;;;;5059401;28;20677;-71
2022/02/26 11:25:31;;;;;;;7.20;4.90;;;20.00;45.20;;;;;;5054791;28;20305;-71
2022/02/26 11:27:58;;;;;;;6.85;4.35;;;22.30;42.50;;;;;;5056940;28;20206;-67
2022/02/26 11:30:34;;;;;;;7.50;4.97;;;24.60;40.30;;;;;;5056087;28;20292;-69
2022/02/26 11:33:02;;;;;;;5.43;4.53;;;27.10;36.00;;;;;;5044796;28;20197;-72
2022/02/26 11:35:30;;;;;;;7.72;5.18;;;27.50;33.90;;;;;;5052401;28;20298;-70
2022/02/26 11:38:03;;;;;;;10.15;5.82;;;26.50;33.40;;;;;;5043206;28;20233;-71
2022/02/26 11:40:31;;;;;;;9.15;4.90;;;24.80;34.30;;;;;;5054441;28;20213;-71
2022/02/26 11:42:58;;;;;;;7.75;5.18;;;22.90;35.60;;;;;;5055162;28;20261;-70
2022/02/26 11:45:30;;;;;;;8.02;4.95;;;21.10;38.10;;;;;;5051232;28;20631;-71
2022/02/26 11:47:58;;;;;;;7.68;4.63;;;19.60;39.60;;;;;;5052025;28;20204;-71
2022/02/26 11:50:27;;;;;;;6.88;5.25;;;18.30;41.40;;;;;;5051955;28;20289;-70
2022/02/26 11:52:57;;;;;;;9.88;5.28;;;17.20;42.90;;;;;;5050381;28;20228;-70
2022/02/26 11:55:35;;;;;;;11.40;5.73;;;16.20;44.20;;;;;;5059302;28;20217;-71
2022/02/26 11:58:05;;;;;;;8.47;5.30;;;15.40;45.50;;;;;;5051676;28;20201;-70
2022/02/26 12:00:38;;;;;;;9.20;5.45;;;14.60;47.10;;;;;;5063960;28;20486;-69
2022/02/26 12:03:31;;;;;;;10.00;6.15;;;14.10;47.90;;;;;;5053852;28;20516;-71
2022/02/26 12:06:29;;;;;;;9.47;5.70;;;13.70;49.60;;;;;;5047098;28;20293;-66
2022/02/26 12:09:01;;;;;;;9.83;5.03;;;13.10;50.10;;;;;;5054490;28;20197;-70
2022/02/26 12:11:37;;;;;;;7.57;4.80;;;12.90;50.40;;;;;;5050049;28;20652;-70
2022/02/26 12:14:06;;;;;;;8.23;4.63;;;12.80;51.00;;;;;;5046624;28;20276;-70
2022/02/26 12:16:36;;;;;;;7.43;4.23;;;13.60;56.40;;;;;;5055032;28;20229;-69
2022/02/26 12:19:06;;;;;;;8.37;4.40;;;14.80;49.90;;;;;;5052250;28;20202;-69
2022/02/26 12:21:35;;;;;;;7.23;3.83;;;16.70;53.30;;;;;;5051553;28;20305;-70
2022/02/26 12:24:08;;;;;;;5.70;3.40;;;18.90;46.80;;;;;;5056536;28;20318;-69
2022/02/26 12:27:03;;;;;;;6.65;3.45;;;22.30;43.00;;;;;;5058784;28;20476;-68
2022/02/26 12:29:49;;;;;;;5.65;2.70;;;26.40;36.80;;;;;;5056865;28;20669;-69
2022/02/26 12:32:19;;;;;;;3.65;2.40;;;30.30;32.00;;;;;;5052987;28;20605;-70
2022/02/26 12:35:02;;;;;;;4.63;2.67;;;33.50;28.60;;;;;;5054104;28;20237;-68
2022/02/26 12:37:31;;;;;;;3.97;2.92;;;34.70;26.00;;;;;;5053697;28;20208;-67
2022/02/26 12:40:00;;;;;;;4.80;2.83;;;35.40;26.00;;;;;;5055548;28;20253;-68
2022/02/26 12:42:29;;;;;;;4.78;3.03;;;35.70;24.90;;;;;;5056471;28;20444;-70
2022/02/26 12:44:59;;;;;;;5.25;3.10;;;33.90;24.60;;;;;;5045126;28;20222;-72
2022/02/26 12:47:29;;;;;;;6.95;3.88;;;31.20;25.20;;;;;;5047762;28;20218;-72
2022/02/26 12:49:56;;;;;;;7.30;4.32;;;28.60;26.90;;;;;;5042866;28;20216;-68